Latest Weather Observations for Redland (Alexandra Hills)

IDQ60801

Issued at 5:02 pm EST Tuesday 21 February 2017 (issued every 30 minutes, with the page automatically refreshed every 10 minutes)

About weather observations | Map of weather stations | Latest weather observations for QLD | Other Formats
Station Details ID: 140007 Name: REDLAND (ALEXANDRA HILLS) Lat: -27.54 Lon: 153.24 Height: 50.53 m
Data from the previous 72 hours. | See also: Recent months at Redland (Alexandra Hills)
Date/Time
EST
Temp
°C
App
Temp
°C
Dew
Point
°C
Rel
Hum
%
Delta-T
°C
Wind Press
QNH
hPa
Press
MSL
hPa
Rain since
9am
mm
Dir  Spd
km/h
Gust
km/h
Spd
kts
Gust
kts
21/05:00pm 27.1 27.0 18.7 60 5.4 ESE 17 28 9 15 - - 0.0
21/04:30pm 27.6 27.3 19.1 59 5.5 ESE 19 35 10 19 - - 0.0
21/04:00pm 28.2 28.4 18.6 56 6.2 ESE 15 32 8 17 - - 0.0
21/03:30pm 28.5 28.0 19.2 57 6.0 SE 20 33 11 18 - - 0.0
21/03:00pm 27.9 27.9 18.9 58 5.8 ESE 17 28 9 15 - - 0.0
21/02:30pm 28.4 28.2 19.3 57 5.9 E 19 30 10 16 - - 0.0
21/02:00pm 29.7 30.6 20.0 56 6.4 ESE 15 26 8 14 - - 0.0
21/01:30pm 29.7 29.8 19.1 53 6.9 ESE 17 28 9 15 - - 0.0
21/01:00pm 29.1 29.7 19.4 55 6.3 E 15 24 8 13 - - 0.0
21/12:30pm 29.5 29.0 17.7 49 7.5 E 17 32 9 17 - - 0.0
21/12:00pm 29.5 29.5 18.9 53 6.9 SE 17 24 9 13 - - 0.0
21/11:30am 29.7 29.6 17.8 48 7.6 SE 15 28 8 15 - - 0.0
21/11:00am 29.9 30.8 19.3 53 6.9 SE 13 24 7 13 - - 0.0
21/10:30am 28.5 28.7 18.6 55 6.4 ESE 15 26 8 14 - - 0.0
21/10:00am 28.0 28.9 18.4 56 6.1 ESE 11 19 6 10 - - 0.0
21/09:30am 28.6 30.5 19.8 59 5.8 E 9 17 5 9 - - 0.0
21/09:00am 28.1 30.5 20.1 62 5.2 SSE 7 13 4 7 - - 0.0
21/08:30am 27.5 30.4 20.6 66 4.6 SSE 6 11 3 6 - - 0.0
21/08:00am 26.4 29.4 21.2 73 3.4 S 7 11 4 6 - - 0.0
21/07:30am 25.0 27.4 20.9 78 2.7 S 9 13 5 7 - - 0.0
21/07:00am 23.4 26.3 20.7 85 1.8 SSW 6 9 3 5 - - 0.0
21/06:30am 22.2 25.2 20.1 88 1.4 SSW 4 7 2 4 - - 0.0
21/06:00am 21.7 24.3 20.0 90 1.1 SSW 6 9 3 5 - - 0.0
21/05:30am 21.4 23.6 19.7 90 1.1 S 7 7 4 4 - - 0.0
21/05:00am 21.4 23.8 19.7 90 1.1 S 6 9 3 5 - - 0.0
21/04:30am 21.2 23.6 19.7 91 1.0 S 6 7 3 4 - - 0.0
21/04:00am 21.8 24.4 20.1 90 1.1 SSW 6 9 3 5 - - 0.0
21/03:30am 21.5 23.9 20.0 91 1.0 S 7 9 4 5 - - 0.0
21/03:00am 21.5 24.1 20.0 91 1.0 SSW 6 7 3 4 - - 0.0
21/02:30am 21.2 23.5 19.8 92 0.9 S 7 9 4 5 - - 0.0
21/02:00am 21.7 24.4 20.2 91 1.0 SSW 6 7 3 4 - - 0.0
21/01:30am 22.0 25.0 20.1 89 1.2 SSW 4 4 2 2 - - 0.0
21/01:00am 22.1 24.9 20.4 90 1.1 SSW 6 6 3 3 - - 0.0
21/12:30am 22.4 25.6 20.5 89 1.2 SSW 4 4 2 2 - - 0.0
21/12:00am 22.5 25.7 20.6 89 1.2 SSW 4 6 2 3 - - 0.0
 
Date/Time
EST
Temp
°C
App
Temp
°C
Dew
Point
°C
Rel
Hum
%
Delta-T
°C
Wind Press
QNH
hPa
Press
MSL
hPa
Rain since
9am
mm
Dir  Spd
km/h
Gust
km/h
Spd
kts
Gust
kts
20/11:30pm 22.5 25.7 20.4 88 1.4 ESE 4 6 2 3 - - 0.0
20/11:00pm 23.1 26.5 20.2 84 1.9 ESE 2 4 1 2 - - 0.0
20/10:30pm 23.8 27.4 20.5 82 2.2 ESE 2 4 1 2 - - 0.0
20/10:00pm 24.1 27.2 20.2 79 2.5 ESE 4 6 2 3 - - 0.0
20/09:30pm 24.7 27.9 20.6 78 2.7 E 4 7 2 4 - - 0.0
20/09:00pm 24.8 27.4 20.5 77 2.8 ESE 7 13 4 7 - - 0.0
20/08:30pm 24.9 27.6 20.6 77 2.8 ESE 7 15 4 8 - - 0.0
20/08:00pm 24.7 27.4 20.2 76 2.9 ESE 6 9 3 5 - - 0.0
20/07:30pm 24.9 27.2 19.9 74 3.2 ESE 7 17 4 9 - - 0.0
20/07:00pm 25.0 27.1 19.4 71 3.6 ESE 7 15 4 8 - - 0.0
20/06:30pm 25.5 26.9 18.7 66 4.3 ESE 9 20 5 11 - - 0.0
20/06:00pm 26.0 26.8 18.2 62 4.9 E 11 19 6 10 - - 0.0
20/05:30pm 26.6 26.4 16.8 55 6.1 ESE 13 22 7 12 - - 0.0
20/05:00pm 27.9 27.4 14.9 45 7.9 ESE 11 22 6 12 - - 0.0
20/04:30pm 28.6 27.3 13.7 40 8.9 ESE 13 22 7 12 - - 0.0
20/04:00pm 28.8 26.9 11.8 35 9.9 E 13 22 7 12 - - 0.0
20/03:30pm 29.5 28.6 13.7 38 9.5 ESE 11 26 6 14 - - 0.0
20/03:00pm 29.1 28.2 14.9 42 8.7 ESE 13 22 7 12 - - 0.0
20/02:30pm 29.4 28.6 14.0 39 9.3 ESE 11 20 6 11 - - 0.0
20/02:00pm 29.4 27.7 13.6 38 9.5 ESE 15 24 8 13 - - 0.0
20/01:30pm 29.8 27.8 12.7 35 10.1 E 15 28 8 15 - - 0.0
20/01:00pm 29.4 28.3 13.2 37 9.6 E 11 20 6 11 - - 0.0
20/12:30pm 29.8 28.7 13.1 36 9.9 SE 11 24 6 13 - - 0.0
20/12:00pm 29.8 28.4 14.4 39 9.3 ESE 15 30 8 16 - - 0.0
20/11:30am 28.8 28.7 16.0 45 7.9 SSE 11 22 6 12 - - 0.0
20/11:00am 28.1 29.4 19.3 58 5.7 SSW 11 19 6 10 - - 0.0
20/10:30am 27.4 28.4 18.7 59 5.6 S 11 17 6 9 - - 0.0
20/10:00am 26.6 28.0 19.5 65 4.6 SSW 11 17 6 9 - - 0.0
20/09:30am 26.6 28.1 19.7 66 4.5 SSW 11 20 6 11 - - 0.0
20/09:00am 25.6 27.6 19.9 70 3.7 SW 9 15 5 8 - - 8.4
20/08:30am 24.0 26.7 20.7 82 2.2 WSW 7 13 4 7 - - 8.4
20/08:00am 23.5 25.7 20.4 83 2.0 W 9 15 5 8 - - 8.4
20/07:30am 23.4 26.2 20.5 84 1.9 SW 6 9 3 5 - - 8.4
20/07:00am 22.1 26.1 20.6 91 1.0 CALM 0 2 0 1 - - 8.4
20/06:30am 21.4 25.4 20.6 95 0.5 CALM 0 0 0 0 - - 8.4
20/06:00am 20.9 24.6 19.9 94 0.6 CALM 0 0 0 0 - - 8.4
20/05:30am 21.0 24.3 20.0 94 0.6 SSW 2 4 1 2 - - 8.4
20/05:00am 21.4 24.2 20.4 94 0.6 SW 6 7 3 4 - - 8.4
20/04:30am 21.6 24.6 20.8 95 0.5 SSW 6 9 3 5 - - 8.4
20/04:00am 21.9 25.1 21.2 96 0.5 SW 6 9 3 5 - - 8.4
20/03:30am 21.8 25.2 21.0 95 0.5 NNW 4 6 2 3 - - 8.4
20/03:00am 22.0 25.9 21.2 95 0.5 NNE 2 4 1 2 - - 8.4
20/02:30am 21.8 24.9 21.0 95 0.5 NW 6 7 3 4 - - 8.2
20/02:00am 22.0 25.8 21.0 94 0.7 SW 2 6 1 3 - - 8.2
20/01:30am 22.1 25.5 20.9 93 0.8 SSW 4 7 2 4 - - 8.2
20/01:00am 22.3 25.4 21.5 95 0.5 SW 7 11 4 6 - - 8.2
20/12:30am 22.3 24.7 21.5 95 0.5 WSW 11 19 6 10 - - 8.2
20/12:00am 21.8 24.3 21.1 96 0.5 WSW 9 15 5 8 - - 8.2
 
Date/Time
EST
Temp
°C
App
Temp
°C
Dew
Point
°C
Rel
Hum
%
Delta-T
°C
Wind Press
QNH
hPa
Press
MSL
hPa
Rain since
9am
mm
Dir  Spd
km/h
Gust
km/h
Spd
kts
Gust
kts
19/11:30pm 21.3 23.5 20.3 94 0.6 SW 9 13 5 7 - - 8.2
19/11:00pm 21.6 23.0 19.5 88 1.3 W 11 22 6 12 - - 7.4
19/10:30pm 23.8 26.8 22.6 93 0.8 W 11 19 6 10 - - 3.2
19/10:00pm 24.0 27.9 23.0 94 0.7 WNW 7 9 4 5 - - 3.2
19/09:30pm 23.8 29.0 22.8 94 0.7 CALM 0 4 0 2 - - 3.2
19/09:00pm 23.8 28.1 22.6 93 0.8 WSW 4 7 2 4 - - 3.0
19/08:30pm 24.0 28.8 22.8 93 0.8 NW 2 4 1 2 - - 2.8
19/08:00pm 23.8 27.8 22.8 94 0.7 W 6 7 3 4 - - 2.6
19/07:30pm 23.9 29.0 22.7 93 0.8 CALM 0 0 0 0 - - 2.2
19/07:00pm 23.9 28.0 22.3 91 1.1 WSW 4 6 2 3 - - 1.6
19/06:30pm 24.6 28.5 22.5 88 1.4 NW 6 9 3 5 - - 1.0
19/06:00pm 25.1 28.7 22.4 85 1.8 NNW 7 11 4 6 - - 0.4
19/05:30pm 25.4 29.6 23.1 87 1.6 N 6 7 3 4 - - 0.4
19/05:00pm 25.9 28.9 22.0 79 2.6 NNW 9 15 5 8 - - 0.2
19/04:30pm 26.9 30.0 22.1 75 3.2 NNW 9 15 5 8 - - 0.0
19/04:00pm 28.3 30.5 21.1 65 4.8 NNW 11 17 6 9 - - 0.0
19/03:30pm 28.4 30.8 20.9 64 5.0 NNW 9 13 5 7 - - 0.0
19/03:00pm 28.7 30.5 20.4 60 5.5 N 11 19 6 10 - - 0.0
19/02:30pm 29.9 31.5 19.9 55 6.6 N 11 15 6 8 - - 0.0
19/02:00pm 29.4 30.3 20.0 57 6.2 N 15 20 8 11 - - 0.0
19/01:30pm 30.5 31.7 19.8 52 7.0 N 13 19 7 10 - - 0.0
19/01:00pm 30.3 31.3 20.2 54 6.7 NNE 15 24 8 13 - - 0.0
19/12:30pm 31.3 33.5 21.2 55 6.8 N 11 19 6 10 - - 0.0
19/12:00pm 30.1 30.4 19.5 53 6.9 NNE 17 28 9 15 - - 0.0
19/11:30am 30.5 31.1 19.5 51 7.2 NNW 15 20 8 11 - - 0.0
19/11:00am 29.3 29.8 19.3 55 6.5 N 15 22 8 12 - - 0.0
19/10:30am 29.1 30.0 20.0 58 6.0 NNW 15 22 8 12 - - 0.0
19/10:00am 28.3 30.1 20.3 62 5.3 N 11 20 6 11 - - 0.0
19/09:30am 28.3 30.6 20.6 63 5.1 NNW 9 15 5 8 - - 0.0
19/09:00am 27.3 29.7 20.1 64 4.7 N 7 13 4 7 - - 0.0
19/08:30am 26.4 29.4 21.2 73 3.4 NW 7 13 4 7 - - 0.0
19/08:00am 24.6 27.3 20.3 77 2.8 WNW 6 9 3 5 - - 0.0
19/07:30am 23.7 26.0 19.8 79 2.5 NW 7 13 4 7 - - 0.0
19/07:00am 23.3 25.6 19.9 81 2.2 NW 7 13 4 7 - - 0.0
19/06:30am 22.8 25.3 20.3 86 1.6 WNW 7 11 4 6 - - 0.0
19/06:00am 22.5 25.2 20.6 89 1.2 NW 7 11 4 6 - - 0.0
19/05:30am 22.6 25.0 20.1 86 1.6 NW 7 11 4 6 - - 0.0
19/05:00am 22.5 25.1 20.0 86 1.6 W 6 7 3 4 - - 0.0
19/04:30am 22.4 25.7 19.9 86 1.6 SSE 2 4 1 2 - - 0.0
19/04:00am 22.7 25.6 19.9 84 1.8 S 4 9 2 5 - - 0.0
19/03:30am 22.9 25.8 20.6 87 1.5 W 6 9 3 5 - - 0.0
19/03:00am 23.3 25.3 20.8 86 1.6 W 11 20 6 11 - - 0.0
19/02:30am 24.3 25.9 20.0 77 2.8 W 11 20 6 11 - - 0.0
19/02:00am 25.1 27.8 20.6 76 2.9 WNW 7 15 4 8 - - 0.0
19/01:30am 25.4 26.8 20.4 74 3.3 NNW 13 22 7 12 - - 0.0
19/01:00am 25.7 26.9 20.7 74 3.3 NNW 15 24 8 13 - - 0.0
19/12:30am 26.1 27.7 21.5 76 3.1 NW 15 24 8 13 - - 0.0
19/12:00am 26.1 27.1 21.7 77 2.9 N 19 33 10 18 - - 0.0
 
Date/Time
EST
Temp
°C
App
Temp
°C
Dew
Point
°C
Rel
Hum
%
Delta-T
°C
Wind Press
QNH
hPa
Press
MSL
hPa
Rain since
9am
mm
Dir  Spd
km/h
Gust
km/h
Spd
kts
Gust
kts
18/11:30pm 26.2 26.8 21.4 75 3.2 N 20 39 11 21 - - 0.0
18/11:00pm 26.2 26.7 21.2 74 3.3 N 20 39 11 21 - - 0.0
18/10:30pm 26.2 27.3 21.2 74 3.3 N 17 33 9 18 - - 0.0
18/10:00pm 26.3 26.5 21.3 74 3.3 N 22 37 12 20 - - 0.0
18/09:30pm 26.2 27.3 21.2 74 3.3 N 17 32 9 17 - - 0.0
18/09:00pm 26.0 27.1 21.2 75 3.2 N 17 32 9 17 - - 0.0
18/08:30pm 26.0 26.7 21.2 75 3.2 N 19 30 10 16 - - 0.0
18/08:00pm 25.8 26.8 21.0 75 3.2 N 17 32 9 17 - - 0.0
18/07:30pm 25.8 27.0 20.6 73 3.4 N 15 28 8 15 - - 0.0
18/07:00pm 25.8 27.3 20.6 73 3.4 N 13 22 7 12 - - 0.0
18/06:30pm 26.1 26.7 20.2 70 3.9 NNE 17 28 9 15 - - 0.0
18/06:00pm 26.4 27.1 20.5 70 3.9 NNE 17 32 9 17 - - 0.0
18/05:30pm 26.7 26.4 20.3 68 4.2 NNE 22 35 12 19 - - 0.0

Other Formats:

Comma delimited format used in spreadsheet applications
http://www.bom.gov.au/fwo/IDQ60801/IDQ60801.94561.axf

JavaScript Object Notation format (JSON) in row-major order
http://www.bom.gov.au/fwo/IDQ60801/IDQ60801.94561.json